Time;durP1;ratioP1;P1;durP2;ratioP2;P2;SDS_P1;SDS_P2;PMS_P1;PMS_P2;Temp;Humidity;BMP_temperature;BMP_pressure;BME280_temperature;BME280_humidity;BME280_pressure;Samples;Min_cycle;Max_cycle;Signal;HPM_P1;HPM_P2
2023/01/20 00:00:29;;;;;;;18.40;9.90;;;;;;;-140.72;100.00;53304.06;6272267;22;20002;-69
2023/01/20 00:02:55;;;;;;;19.10;10.27;;;;;;;-140.72;100.00;53358.88;6273234;22;19996;-69
2023/01/20 00:05:20;;;;;;;20.73;11.02;;;;;;;-140.72;100.00;53344.66;6271716;22;20003;-69
2023/01/20 00:07:46;;;;;;;17.95;9.90;;;;;;;-140.72;100.00;53318.28;6272628;22;20006;-69
2023/01/20 00:10:11;;;;;;;23.05;10.60;;;;;;;-140.72;100.00;53330.44;6271055;22;20084;-69
2023/01/20 00:12:36;;;;;;;17.88;10.35;;;;;;;-140.72;100.00;53362.94;6270737;22;20357;-70
2023/01/20 00:15:15;;;;;;;18.92;10.30;;;;;;;-140.72;100.00;53336.53;6272757;22;20063;-69
2023/01/20 00:17:43;;;;;;;20.83;9.98;;;;;;;-140.72;100.00;53336.53;6272351;22;20010;-68
2023/01/20 00:20:09;;;;;;;25.75;10.65;;;;;;;-140.72;100.00;53300.00;6271592;22;20066;-69
2023/01/20 00:22:40;;;;;;;14.52;8.98;;;;;;;-140.72;100.00;53332.47;6272319;22;19995;-69
2023/01/20 00:25:08;;;;;;;16.70;7.95;;;;;;;-140.72;100.00;53328.41;6272635;22;20030;-69
2023/01/20 00:27:33;;;;;;;28.98;12.18;;;;;;;-140.72;100.00;53314.22;6271522;22;20046;-68
2023/01/20 00:29:59;;;;;;;13.40;8.27;;;;;;;-140.72;100.00;53330.44;6272519;22;20394;-68
2023/01/20 00:32:27;;;;;;;20.98;10.05;;;;;;;-140.72;100.00;53334.50;6272466;22;20386;-67
2023/01/20 00:34:52;;;;;;;22.38;9.95;;;;;;;-140.72;100.00;53332.47;6239478;23;20162;-68
2023/01/20 00:37:17;;;;;;;23.00;11.57;;;;;;;-140.72;100.00;53297.97;6241894;22;20048;-68
2023/01/20 00:39:43;;;;;;;18.52;9.25;;;;;;;-140.72;100.00;53338.56;6241790;22;20011;-68
2023/01/20 00:42:08;;;;;;;19.77;11.15;;;;;;;-140.72;100.00;53334.50;6240797;22;20351;-68
2023/01/20 00:44:34;;;;;;;16.02;9.25;;;;;;;-140.72;100.00;53360.91;6241756;22;19996;-68
2023/01/20 00:46:59;;;;;;;21.27;9.85;;;;;;;-140.72;100.00;53336.53;6240534;22;20480;-68
2023/01/20 00:49:24;;;;;;;20.33;9.20;;;;;;;-140.72;100.00;53346.69;6241748;22;20410;-68
2023/01/20 00:51:50;;;;;;;21.50;10.93;;;;;;;-140.72;100.00;53316.25;6242320;22;20048;-68
2023/01/20 00:54:15;;;;;;;15.05;8.02;;;;;;;-140.72;100.00;53344.66;6241403;22;19992;-68
2023/01/20 00:56:40;;;;;;;18.50;8.50;;;;;;;-140.72;100.00;53322.34;6241638;22;20050;-68
2023/01/20 00:59:07;;;;;;;17.65;9.10;;;;;;;-140.72;100.00;53310.16;6241911;22;20000;-68
2023/01/20 01:01:33;;;;;;;20.30;8.65;;;;;;;-140.72;100.00;53334.50;6241065;22;20005;-68
2023/01/20 01:03:58;;;;;;;18.95;8.80;;;;;;;-140.72;100.00;53354.81;6240740;22;20012;-68
2023/01/20 01:06:24;;;;;;;15.50;9.38;;;;;;;-140.72;100.00;53371.03;6240746;22;20284;-68
2023/01/20 01:08:49;;;;;;;15.80;9.65;;;;;;;-140.72;100.00;53342.63;6239573;22;20319;-68
2023/01/20 01:11:15;;;;;;;22.15;9.30;;;;;;;-140.72;100.00;53352.78;6236979;22;20407;-68
2023/01/20 01:13:40;;;;;;;20.27;8.93;;;;;;;-140.72;100.00;53387.28;6239788;22;20359;-68
2023/01/20 01:16:11;;;;;;;15.90;8.35;;;;;;;-140.72;100.00;53306.09;6239659;22;20004;-68
2023/01/20 01:18:36;;;;;;;16.50;7.80;;;;;;;-140.72;100.00;53320.31;6240342;22;20000;-69
2023/01/20 01:21:07;;;;;;;15.15;8.68;;;;;;;-140.72;100.00;53336.53;6242683;22;20000;-69
2023/01/20 01:23:32;;;;;;;15.80;9.10;;;;;;;-140.72;100.00;53356.84;6241694;22;20004;-69
2023/01/20 01:25:58;;;;;;;20.75;8.70;;;;;;;-140.72;100.00;53328.41;6239337;22;20078;-68
2023/01/20 01:28:23;;;;;;;18.88;8.60;;;;;;;-140.72;100.00;53316.25;6242544;22;20000;-69
2023/01/20 01:30:48;;;;;;;18.42;9.13;;;;;;;-140.72;100.00;53336.53;6241861;22;20004;-68
2023/01/20 01:33:17;;;;;;;16.83;9.45;;;;;;;-140.72;100.00;53369.00;6244071;22;20000;-68
2023/01/20 01:35:42;;;;;;;20.17;8.85;;;;;;;-140.72;100.00;53367.00;6270151;22;20014;-68
2023/01/20 01:38:08;;;;;;;18.25;8.35;;;;;;;-140.72;100.00;53350.75;6272876;22;20004;-68
2023/01/20 01:40:34;;;;;;;21.10;9.15;;;;;;;-140.72;100.00;53334.50;6272390;22;19999;-68
2023/01/20 01:42:59;;;;;;;14.07;8.98;;;;;;;-140.72;100.00;53348.72;6274382;22;20367;-68
2023/01/20 01:45:30;;;;;;;17.02;10.13;;;;;;;-140.72;100.00;53310.16;6272744;22;19999;-68
2023/01/20 01:48:02;;;;;;;17.08;9.40;;;;;;;-140.72;100.00;53316.25;6273841;22;20022;-69
2023/01/20 01:50:47;;;;;;;23.20;9.63;;;;;;;-140.72;100.00;53356.84;6272725;22;20010;-69
2023/01/20 01:53:14;;;;;;;14.68;8.38;;;;;;;-140.72;100.00;53330.44;6274017;22;20000;-68
2023/01/20 01:55:45;;;;;;;17.25;7.75;;;;;;;-140.72;100.00;53342.63;6272323;22;20051;-69
2023/01/20 01:58:14;;;;;;;19.23;7.68;;;;;;;-140.72;100.00;53362.94;6273351;22;20052;-68
2023/01/20 02:00:40;;;;;;;15.48;7.80;;;;;;;-140.72;100.00;53369.00;6272953;22;20008;-69
2023/01/20 02:03:07;;;;;;;13.73;7.93;;;;;;;-140.72;100.00;53328.41;6273806;22;20075;-68
2023/01/20 02:05:34;;;;;;;22.05;8.95;;;;;;;-140.72;100.00;53320.31;6273522;22;20050;-68
2023/01/20 02:07:59;;;;;;;17.63;9.32;;;;;;;-140.72;100.00;53344.66;6273522;22;20011;-69
2023/01/20 02:10:25;;;;;;;17.25;8.48;;;;;;;-140.72;100.00;53330.44;6273789;22;20007;-69
2023/01/20 02:12:51;;;;;;;19.25;8.98;;;;;;;-140.72;100.00;53348.72;6272937;22;20314;-68
2023/01/20 02:15:21;;;;;;;26.77;10.15;;;;;;;-140.72;100.00;53342.63;6273120;22;20003;-68
2023/01/20 02:18:05;;;;;;;17.77;9.93;;;;;;;-140.72;100.00;53344.66;6272858;22;20003;-69
2023/01/20 02:21:01;;;;;;;15.68;9.25;;;;;;;-140.72;100.00;53352.78;6272151;22;20007;-69
2023/01/20 02:23:52;;;;;;;18.90;8.70;;;;;;;-140.72;100.00;53312.19;6273316;22;20026;-69
2023/01/20 02:26:26;;;;;;;14.80;8.90;;;;;;;-140.72;100.00;53358.88;6272270;22;20031;-68
2023/01/20 02:29:07;;;;;;;13.85;7.65;;;;;;;-140.72;100.00;53332.47;6271097;22;20000;-69
2023/01/20 02:31:53;;;;;;;18.67;9.23;;;;;;;-140.72;100.00;53369.00;6272907;22;20004;-68
2023/01/20 02:34:34;;;;;;;17.20;9.43;;;;;;;-140.72;100.00;53356.84;6272457;22;20018;-68
2023/01/20 02:37:10;;;;;;;18.60;10.13;;;;;;;-140.72;100.00;53326.41;6273220;22;20003;-69
2023/01/20 02:40:06;;;;;;;17.55;8.52;;;;;;;-140.72;100.00;53354.81;6272510;22;20010;-69
2023/01/20 02:42:46;;;;;;;20.63;9.90;;;;;;;-140.72;100.00;53377.13;6273116;22;20375;-68
2023/01/20 02:45:20;;;;;;;17.35;8.32;;;;;;;-140.72;100.00;53340.59;6273941;22;20347;-68
2023/01/20 02:48:01;;;;;;;17.98;10.15;;;;;;;-140.72;100.00;53324.38;6271998;22;20002;-68
2023/01/20 02:50:32;;;;;;;20.15;8.80;;;;;;;-140.72;100.00;53362.94;6273230;22;20079;-69
2023/01/20 02:53:02;;;;;;;23.98;10.38;;;;;;;-140.72;100.00;53328.41;6274232;22;20007;-69
2023/01/20 02:55:35;;;;;;;21.33;9.45;;;;;;;-140.72;100.00;53328.41;6272208;22;20051;-68
2023/01/20 02:58:09;;;;;;;18.50;9.73;;;;;;;-140.72;100.00;53383.22;6271969;22;20066;-69
2023/01/20 03:00:43;;;;;;;17.83;9.00;;;;;;;-140.72;100.00;53340.59;6271079;22;20069;-68
2023/01/20 03:03:13;;;;;;;18.27;8.95;;;;;;;-140.72;100.00;53330.44;6273613;22;20064;-69
2023/01/20 03:05:47;;;;;;;15.75;9.93;;;;;;;-140.72;100.00;53324.38;6272178;22;20418;-68
2023/01/20 03:08:20;;;;;;;25.75;9.15;;;;;;;-140.72;100.00;53340.59;6271439;22;20004;-69
2023/01/20 03:10:48;;;;;;;16.50;7.97;;;;;;;-140.72;100.00;53342.63;6272982;22;20414;-69
2023/01/20 03:13:18;;;;;;;15.73;9.07;;;;;;;-140.72;100.00;53344.66;6273510;22;20038;-68
2023/01/20 03:15:51;;;;;;;;;;;;;;;-140.72;100.00;53379.16;6271264;22;20008;-68
2023/01/20 03:18:16;;;;;;;18.60;9.65;;;;;;;-140.72;100.00;53385.25;6272717;22;20217;-69
2023/01/20 03:20:44;;;;;;;18.08;9.50;;;;;;;-140.72;100.00;53377.13;6272386;22;20069;-69
2023/01/20 03:23:10;;;;;;;16.88;9.60;;;;;;;-140.72;100.00;53373.06;6272528;22;20314;-68
2023/01/20 03:25:38;;;;;;;15.80;8.07;;;;;;;-140.72;100.00;53308.13;6271858;22;19999;-69
2023/01/20 03:28:03;;;;;;;21.38;9.25;;;;;;;-140.72;100.00;53322.34;6272142;22;20074;-69
2023/01/20 03:30:29;;;;;;;22.70;10.13;;;;;;;-140.72;100.00;53369.00;6271977;22;20038;-69
2023/01/20 03:32:55;;;;;;;21.52;10.23;;;;;;;-140.72;100.00;53326.41;6269758;22;20349;-69
2023/01/20 03:35:21;;;;;;;20.88;10.90;;;;;;;-140.72;100.00;53340.59;6270589;22;20046;-69
2023/01/20 03:37:46;;;;;;;14.85;8.52;;;;;;;-140.72;100.00;53336.53;6271016;22;20006;-69
2023/01/20 03:40:33;;;;;;;20.38;10.52;;;;;;;-140.72;100.00;53385.25;6221797;22;20016;-69
2023/01/20 03:43:09;;;;;;;19.42;9.85;;;;;;;-140.72;100.00;53324.38;6271796;22;20000;-69
2023/01/20 03:45:51;;;;;;;19.42;11.27;;;;;;;-140.72;100.00;53356.84;6272325;22;20026;-69
2023/01/20 03:48:30;;;;;;;23.77;10.15;;;;;;;-140.72;100.00;53350.75;6272978;22;20008;-69
2023/01/20 03:51:01;;;;;;;30.63;10.07;;;;;;;-140.72;100.00;53330.44;6272467;22;20045;-69
2023/01/20 03:53:44;;;;;;;22.17;11.38;;;;;;;-140.72;100.00;53375.09;6272291;22;20008;-69
2023/01/20 03:56:15;;;;;;;20.90;9.77;;;;;;;-140.72;100.00;53379.16;6273552;22;20003;-69
2023/01/20 03:58:44;;;;;;;19.27;9.63;;;;;;;-140.72;100.00;53320.31;6271745;22;20318;-69
2023/01/20 04:01:11;;;;;;;15.50;10.20;;;;;;;-140.72;100.00;53354.81;6273029;22;20284;-69
2023/01/20 04:03:41;;;;;;;26.80;10.00;;;;;;;-140.72;100.00;53354.81;6272101;22;20020;-69
2023/01/20 04:06:10;;;;;;;21.10;11.55;;;;;;;-140.72;100.00;53324.38;6271840;22;20023;-69
2023/01/20 04:08:40;;;;;;;21.90;11.50;;;;;;;-140.72;100.00;53312.19;6272751;22;20027;-68
2023/01/20 04:11:07;;;;;;;;;;;;;;;-140.72;100.00;53344.66;6272392;22;20039;-68
2023/01/20 04:13:33;;;;;;;31.73;11.90;;;;;;;-140.72;100.00;53352.78;6272018;22;19923;-68
2023/01/20 04:16:00;;;;;;;21.80;9.63;;;;;;;-140.72;100.00;53277.69;6272822;22;20011;-68
2023/01/20 04:18:26;;;;;;;19.52;10.57;;;;;;;-140.72;100.00;53275.66;6271471;22;20004;-68
2023/01/20 04:21:01;;;;;;;23.02;10.60;;;;;;;-140.72;100.00;53316.25;6272814;22;20349;-68
2023/01/20 04:23:41;;;;;;;27.35;12.95;;;;;;;-140.72;100.00;53350.75;6272461;22;20326;-69
2023/01/20 04:26:07;;;;;;;25.65;11.13;;;;;;;-140.72;100.00;53336.53;6272116;22;19995;-68
2023/01/20 04:28:32;;;;;;;25.55;11.10;;;;;;;-140.72;100.00;53334.50;6272487;22;20010;-68
2023/01/20 04:30:58;;;;;;;21.70;11.95;;;;;;;-140.72;100.00;53324.38;6272737;22;19999;-68
2023/01/20 04:33:26;;;;;;;32.80;14.98;;;;;;;-140.72;100.00;53332.47;6272229;22;19996;-69
2023/01/20 04:35:51;;;;;;;26.75;11.65;;;;;;;-140.72;100.00;53332.47;6270864;22;20034;-68
2023/01/20 04:38:17;;;;;;;23.45;13.85;;;;;;;-140.72;100.00;53324.38;6272663;22;20441;-68
2023/01/20 04:40:43;;;;;;;35.17;12.82;;;;;;;-140.72;100.00;53310.16;6244108;22;20394;-68
2023/01/20 04:43:09;;;;;;;39.03;11.18;;;;;;;-140.72;100.00;53308.13;6271987;22;20006;-68
2023/01/20 04:45:34;;;;;;;24.05;10.45;;;;;;;-140.72;100.00;53322.34;6272033;22;20143;-68
2023/01/20 04:48:00;;;;;;;26.90;13.55;;;;;;;-140.72;100.00;53348.72;6271719;22;20003;-68
2023/01/20 04:50:25;;;;;;;29.00;13.27;;;;;;;-140.72;100.00;53350.75;6272626;22;20010;-69
2023/01/20 04:52:54;;;;;;;34.17;14.30;;;;;;;-140.72;100.00;53369.00;6273383;22;20378;-68
2023/01/20 04:55:20;;;;;;;27.02;11.60;;;;;;;-140.72;100.00;53316.25;6272942;22;20077;-68
2023/01/20 04:57:46;;;;;;;29.38;12.27;;;;;;;-140.72;100.00;53308.13;6274063;22;20003;-68
2023/01/20 05:00:17;;;;;;;35.65;13.93;;;;;;;-140.72;100.00;53328.41;6274281;22;20004;-69
2023/01/20 05:02:43;;;;;;;30.50;14.05;;;;;;;-140.72;100.00;53308.13;6273811;22;19996;-68
2023/01/20 05:05:09;;;;;;;33.38;14.23;;;;;;;-140.72;100.00;53318.28;6274699;22;20057;-68
2023/01/20 05:07:34;;;;;;;35.63;12.30;;;;;;;-140.72;100.00;53328.41;6273491;22;20144;-69
2023/01/20 05:09:59;;;;;;;26.75;13.18;;;;;;;-140.72;100.00;53346.69;6274620;22;19999;-69
2023/01/20 05:12:25;;;;;;;28.58;15.15;;;;;;;-140.72;100.00;53332.47;6273671;22;20003;-69
2023/01/20 05:14:50;;;;;;;33.90;14.00;;;;;;;-140.72;100.00;53312.19;6273817;22;20000;-69
2023/01/20 05:17:21;;;;;;;33.92;12.15;;;;;;;-140.72;100.00;53283.78;6274466;22;20403;-68
2023/01/20 05:19:47;;;;;;;25.25;10.63;;;;;;;-140.72;100.00;53324.38;6274030;22;20406;-68
2023/01/20 05:22:12;;;;;;;35.17;13.10;;;;;;;-140.72;100.00;53330.44;6272182;22;20075;-68
2023/01/20 05:24:38;;;;;;;22.55;10.95;;;;;;;-140.72;100.00;53346.69;6273859;22;20082;-68
2023/01/20 05:27:03;;;;;;;25.10;12.32;;;;;;;-140.72;100.00;53338.56;6273887;22;20090;-68
2023/01/20 05:29:29;;;;;;;25.67;11.15;;;;;;;-140.72;100.00;53330.44;6273022;22;19999;-68
2023/01/20 05:31:54;;;;;;;30.38;12.00;;;;;;;-140.72;100.00;53318.28;6273816;22;20049;-68
2023/01/20 05:34:20;;;;;;;29.05;12.63;;;;;;;-140.72;100.00;53312.19;6273810;22;20039;-68
2023/01/20 05:36:50;;;;;;;26.70;12.25;;;;;;;-140.72;100.00;53320.31;6273112;22;20130;-68
2023/01/20 05:39:15;;;;;;;;;;;;;;;-140.72;100.00;53336.53;6274555;22;20073;-69
2023/01/20 05:41:40;;;;;;;35.30;13.80;;;;;;;-140.72;100.00;53318.28;6274010;22;19903;-68
2023/01/20 05:44:06;;;;;;;25.60;12.02;;;;;;;-140.72;100.00;53338.56;6272539;22;20000;-68
2023/01/20 05:46:31;;;;;;;24.90;13.30;;;;;;;-140.72;100.00;53344.66;6273369;22;20022;-67
2023/01/20 05:48:57;;;;;;;30.38;14.48;;;;;;;-140.72;100.00;53328.41;6273323;22;20007;-68
2023/01/20 05:51:22;;;;;;;30.02;12.30;;;;;;;-140.72;100.00;53312.19;6272826;22;19999;-68
2023/01/20 05:53:47;;;;;;;21.77;11.48;;;;;;;-140.72;100.00;53375.09;6273847;22;20004;-68
2023/01/20 05:56:14;;;;;;;29.98;12.57;;;;;;;-140.72;100.00;53306.09;6273879;22;20008;-68
2023/01/20 05:58:40;;;;;;;33.75;14.70;;;;;;;-140.72;100.00;53322.34;6273078;22;19999;-68
2023/01/20 06:01:11;;;;;;;26.67;13.32;;;;;;;-140.72;100.00;53364.97;6272794;22;20090;-68
2023/01/20 06:03:37;;;;;;;24.77;10.10;;;;;;;-140.72;100.00;53369.00;6272854;22;20432;-68
2023/01/20 06:06:05;;;;;;;24.50;11.00;;;;;;;-140.72;100.00;53332.47;6273065;22;20057;-68
2023/01/20 06:08:31;;;;;;;23.08;11.95;;;;;;;-140.72;100.00;53310.16;6273245;22;20000;-68
2023/01/20 06:10:57;;;;;;;20.80;11.30;;;;;;;-140.72;100.00;53340.59;6272298;22;20004;-68
2023/01/20 06:13:23;;;;;;;23.98;10.32;;;;;;;-140.72;100.00;53318.28;6273505;22;20015;-68
2023/01/20 06:15:53;;;;;;;24.70;11.20;;;;;;;-140.72;100.00;53328.41;6273434;22;20000;-68
2023/01/20 06:18:19;;;;;;;;;;;;;;;-140.72;100.00;53340.59;6273650;22;20008;-68
2023/01/20 06:20:47;;;;;;;20.83;9.73;;;;;;;-140.72;100.00;53328.41;6273391;22;19987;-68
2023/01/20 06:23:13;;;;;;;22.90;10.80;;;;;;;-140.72;100.00;53322.34;6273502;22;19995;-69
2023/01/20 06:25:45;;;;;;;18.42;9.73;;;;;;;-140.72;100.00;53342.63;6272221;22;20012;-69
2023/01/20 06:28:10;;;;;;;20.27;8.23;;;;;;;-140.72;100.00;53354.81;6273486;22;20011;-69
2023/01/20 06:30:36;;;;;;;16.95;9.65;;;;;;;-140.72;100.00;53377.13;6273405;22;20317;-69
2023/01/20 06:33:03;;;;;;;22.08;11.70;;;;;;;-140.72;100.00;53330.44;6272987;22;20003;-69
2023/01/20 06:35:28;;;;;;;22.20;9.80;;;;;;;-140.72;100.00;53324.38;6274152;22;20107;-69
2023/01/20 06:37:57;;;;;;;27.08;10.45;;;;;;;-140.72;100.00;53362.94;6272193;22;20023;-69
2023/01/20 06:40:23;;;;;;;22.42;10.82;;;;;;;-140.72;100.00;53362.94;6273226;22;20078;-70
2023/01/20 06:42:48;;;;;;;17.35;9.77;;;;;;;-140.72;100.00;53346.69;6272441;22;20059;-69
2023/01/20 06:45:15;;;;;;;15.13;8.90;;;;;;;-140.72;100.00;53369.00;6273511;22;20501;-68
2023/01/20 06:47:41;;;;;;;17.70;9.32;;;;;;;-140.72;100.00;53352.78;6272183;22;20011;-69
2023/01/20 06:50:09;;;;;;;14.10;9.02;;;;;;;-140.72;100.00;53346.69;6274035;22;19999;-68
2023/01/20 06:52:35;;;;;;;15.55;9.77;;;;;;;-140.72;100.00;53364.97;6272436;22;20033;-68
2023/01/20 06:55:00;;;;;;;13.63;7.82;;;;;;;-140.72;100.00;53369.00;6273974;22;20023;-68
2023/01/20 06:57:32;;;;;;;17.83;9.98;;;;;;;-140.72;100.00;53348.72;6272898;22;20053;-69
2023/01/20 06:59:58;;;;;;;20.02;9.25;;;;;;;-140.72;100.00;53320.31;6271397;22;20003;-70
2023/01/20 07:02:23;;;;;;;19.33;9.63;;;;;;;-140.72;100.00;53316.25;6272818;22;20019;-74
2023/01/20 07:04:51;;;;;;;17.02;8.80;;;;;;;-140.72;100.00;53338.56;6273718;22;20007;-71
2023/01/20 07:07:16;;;;;;;20.65;10.85;;;;;;;-140.72;100.00;53352.78;6272816;22;20347;-72
2023/01/20 07:09:42;;;;;;;13.70;8.23;;;;;;;-140.72;100.00;53377.13;6273542;22;20021;-70
2023/01/20 07:12:07;;;;;;;18.38;9.30;;;;;;;-140.72;100.00;53377.13;6272601;22;20411;-72
2023/01/20 07:14:32;;;;;;;10.65;6.75;;;;;;;-140.72;100.00;53328.41;6272550;22;20000;-72
2023/01/20 07:16:58;;;;;;;16.92;8.90;;;;;;;-140.72;100.00;53344.66;6273259;22;20049;-73
2023/01/20 07:19:23;;;;;;;16.45;7.43;;;;;;;-140.72;100.00;53348.72;6273457;22;20339;-69
2023/01/20 07:21:48;;;;;;;14.80;7.63;;;;;;;-140.72;100.00;53362.94;6272205;22;20003;-70
2023/01/20 07:24:14;;;;;;;16.20;7.45;;;;;;;-140.72;100.00;53358.88;6273776;22;20015;-69
2023/01/20 07:26:39;;;;;;;16.95;8.60;;;;;;;-140.72;100.00;53369.00;6272921;22;20031;-69
2023/01/20 07:29:04;;;;;;;17.00;9.02;;;;;;;-140.72;100.00;53324.38;6273203;22;20321;-72
2023/01/20 07:31:30;;;;;;;13.43;8.35;;;;;;;-140.72;100.00;53330.44;6272996;22;20011;-69
2023/01/20 07:33:56;;;;;;;19.73;8.73;;;;;;;-140.72;100.00;53318.28;6273399;22;20035;-70
2023/01/20 07:36:22;;;;;;;16.33;9.95;;;;;;;-140.72;100.00;53344.66;6272216;22;20030;-69
2023/01/20 07:38:48;;;;;;;20.00;8.65;;;;;;;-140.72;100.00;53371.03;6273179;22;20225;-71
2023/01/20 07:41:18;;;;;;;13.65;7.47;;;;;;;-140.72;100.00;53356.84;6273170;22;19995;-69
2023/01/20 07:43:45;;;;;;;22.88;8.50;;;;;;;-140.72;100.00;53322.34;6272535;22;20006;-68
2023/01/20 07:46:10;;;;;;;15.00;8.85;;;;;;;-140.72;100.00;53328.41;6273337;22;20000;-68
2023/01/20 07:48:36;;;;;;;16.95;9.23;;;;;;;-140.72;100.00;53332.47;6273255;22;20073;-68
2023/01/20 07:51:05;;;;;;;19.25;9.63;;;;;;;-140.72;100.00;53322.34;6272265;22;20291;-72
2023/01/20 07:53:33;;;;;;;16.35;9.85;;;;;;;-140.72;100.00;53352.78;6273263;22;20003;-69
2023/01/20 07:56:10;;;;;;;21.23;10.57;;;;;;;-140.72;100.00;53342.63;6271863;22;20046;-71
2023/01/20 07:58:36;;;;;;;16.90;9.02;;;;;;;-140.72;100.00;53350.75;6272627;22;19996;-71
2023/01/20 08:01:25;;;;;;;15.30;9.23;;;;;;;-140.72;100.00;53375.09;6272748;22;20054;-70
2023/01/20 08:03:52;;;;;;;20.92;10.00;;;;;;;-140.72;100.00;53320.31;6270037;22;20004;-69
2023/01/20 08:06:20;;;;;;;16.27;10.35;;;;;;;-140.72;100.00;53304.06;6272620;22;20004;-73
2023/01/20 08:08:46;;;;;;;19.38;11.15;;;;;;;-140.72;100.00;53326.41;6270017;22;19995;-69
2023/01/20 08:11:16;;;;;;;17.23;11.25;;;;;;;-140.72;100.00;53338.56;6265854;22;20365;-70
2023/01/20 08:13:42;;;;;;;21.70;11.55;;;;;;;-140.72;100.00;53320.31;6270789;22;20008;-72
2023/01/20 08:16:12;;;;;;;23.02;12.48;;;;;;;-140.72;100.00;53373.06;6273993;22;19999;-69
2023/01/20 08:18:38;;;;;;;18.88;11.77;;;;;;;-140.72;100.00;53356.84;6272774;22;20430;-71
2023/01/20 08:21:06;;;;;;;24.02;12.63;;;;;;;-140.72;100.00;53348.72;6272963;22;20000;-69
2023/01/20 08:23:36;;;;;;;19.73;13.77;;;;;;;-140.72;100.00;53362.94;6272254;22;19996;-70
2023/01/20 08:26:04;;;;;;;18.85;11.88;;;;;;;-140.72;100.00;53332.47;6272796;22;20260;-71
2023/01/20 08:28:31;;;;;;;19.63;12.88;;;;;;;-140.72;100.00;53334.50;6273951;22;20083;-70
2023/01/20 08:31:11;;;;;;;16.52;10.50;;;;;;;-140.72;100.00;53364.97;6279352;22;20069;-73
2023/01/20 08:33:37;;;;;;;17.52;11.90;;;;;;;-140.72;100.00;53356.84;6276124;22;20000;-72
2023/01/20 08:36:15;;;;;;;19.48;11.77;;;;;;;-140.72;100.00;53344.66;6276942;22;20552;-72
2023/01/20 08:38:41;;;;;;;16.98;10.70;;;;;;;-140.72;100.00;53304.06;6274555;22;20027;-72
2023/01/20 08:41:15;;;;;;;21.35;10.25;;;;;;;-140.72;100.00;53399.47;6275197;22;20484;-72
2023/01/20 08:43:41;;;;;;;17.95;11.07;;;;;;;-140.72;100.00;53350.75;6274478;22;20000;-72
2023/01/20 08:46:09;;;;;;;17.15;11.27;;;;;;;-140.72;100.00;53403.53;6274610;22;20061;-73
2023/01/20 08:48:35;;;;;;;15.77;9.70;;;;;;;-140.72;100.00;53330.44;6275838;22;20007;-73
2023/01/20 08:51:16;;;;;;;18.63;11.23;;;;;;;-140.72;100.00;53342.63;6276427;22;19995;-73
2023/01/20 08:54:03;;;;;;;17.20;9.45;;;;;;;-140.72;100.00;53369.00;6274707;22;20014;-74
2023/01/20 08:56:36;;;;;;;17.23;8.32;;;;;;;-140.72;100.00;53346.69;6275406;22;20004;-74
2023/01/20 08:59:02;;;;;;;17.85;10.45;;;;;;;-140.72;100.00;53334.50;6275158;22;20142;-73
2023/01/20 09:01:35;;;;;;;20.05;11.75;;;;;;;-140.72;100.00;53336.53;6273629;22;20307;-74
2023/01/20 09:04:00;;;;;;;19.15;8.98;;;;;;;-140.72;100.00;53334.50;6275208;22;20049;-73
2023/01/20 09:06:26;;;;;;;22.75;12.45;;;;;;;-140.72;100.00;53358.88;6274103;22;19996;-73
2023/01/20 09:08:52;;;;;;;18.13;10.93;;;;;;;-140.72;100.00;53364.97;6274575;22;20275;-73
2023/01/20 09:11:23;;;;;;;19.50;11.18;;;;;;;-140.72;100.00;53340.59;6275535;22;20011;-73
2023/01/20 09:13:48;;;;;;;18.63;10.18;;;;;;;-140.72;100.00;53344.66;6274416;22;20009;-74
2023/01/20 09:16:16;;;;;;;15.02;9.35;;;;;;;-140.72;100.00;53377.13;6274423;22;20157;-72
2023/01/20 09:18:41;;;;;;;20.92;11.45;;;;;;;-140.72;100.00;53352.78;6275470;22;20010;-73
2023/01/20 09:21:08;;;;;;;21.10;11.82;;;;;;;-140.72;100.00;53389.31;6274617;22;20003;-71
2023/01/20 09:23:35;;;;;;;20.83;11.82;;;;;;;-140.72;100.00;53283.78;6275549;22;20392;-72
2023/01/20 09:26:03;;;;;;;17.05;10.63;;;;;;;-140.72;100.00;53316.25;6274297;22;19996;-71
2023/01/20 09:28:29;;;;;;;24.40;11.57;;;;;;;-140.72;100.00;53354.81;6273264;22;19995;-71
2023/01/20 09:31:03;;;;;;;23.08;10.82;;;;;;;-140.72;100.00;53316.25;6275038;22;20007;-71
2023/01/20 09:33:29;;;;;;;18.33;10.77;;;;;;;-140.72;100.00;53373.06;6274526;22;20000;-71
2023/01/20 09:35:55;;;;;;;18.55;11.55;;;;;;;-140.72;100.00;53346.69;6273901;22;20015;-72
2023/01/20 09:44:03;;;;;;;16.92;12.20;;;;;;;-140.72;100.00;53344.66;6272598;22;20031;-70
2023/01/20 09:47:18;;;;;;;21.75;10.55;;;;;;;-140.72;100.00;53350.75;6272267;22;20004;-70
2023/01/20 09:55:28;;;;;;;19.83;10.10;;;;;;;-140.72;100.00;53332.47;6272980;22;20014;-69
2023/01/20 09:58:17;;;;;;;23.55;11.13;;;;;;;-140.72;100.00;53391.34;6273039;22;20045;-71
2023/01/20 10:00:50;;;;;;;20.75;11.70;;;;;;;-140.72;100.00;53348.72;6272607;22;20197;-69
2023/01/20 10:03:19;;;;;;;24.10;13.40;;;;;;;-140.72;100.00;53318.28;6272074;22;20418;-69
2023/01/20 10:05:49;;;;;;;15.03;10.57;;;;;;;-140.72;100.00;53324.38;6272223;22;20008;-69
2023/01/20 10:08:20;;;;;;;27.02;13.00;;;;;;;-140.72;100.00;53377.13;6272680;22;20363;-69
2023/01/20 10:10:59;;;;;;;26.75;13.35;;;;;;;-140.72;100.00;53356.84;6272191;22;20318;-70
2023/01/20 10:13:33;;;;;;;17.00;11.82;;;;;;;-140.72;100.00;53314.22;6272767;22;20000;-68
2023/01/20 10:16:03;;;;;;;24.17;11.95;;;;;;;-140.72;100.00;53371.03;6273018;22;20026;-71
2023/01/20 10:18:52;;;;;;;22.98;13.48;;;;;;;-140.72;100.00;53316.25;6270860;22;20006;-69
2023/01/20 10:21:44;;;;;;;17.70;11.63;;;;;;;-140.72;100.00;53344.66;6271943;22;20003;-68
2023/01/20 10:24:19;;;;;;;22.90;12.45;;;;;;;-140.72;100.00;53344.66;6271589;22;20357;-67
2023/01/20 10:26:58;;;;;;;25.38;10.38;;;;;;;-140.72;100.00;53304.06;6271376;22;20027;-71
2023/01/20 10:29:46;;;;;;;23.17;11.13;;;;;;;-140.72;100.00;53300.00;6271872;22;20003;-70
2023/01/20 10:32:21;;;;;;;19.20;11.63;;;;;;;-140.72;100.00;53281.75;6270501;22;20140;-70
2023/01/20 10:34:51;;;;;;;22.75;10.57;;;;;;;-140.72;100.00;53342.63;6271822;22;20011;-71
2023/01/20 10:37:16;;;;;;;20.10;12.15;;;;;;;-140.72;100.00;53312.19;6272343;22;20022;-69
2023/01/20 10:39:42;;;;;;;14.75;9.77;;;;;;;-140.72;100.00;53318.28;6271680;22;20020;-70
2023/01/20 10:42:13;;;;;;;20.08;11.65;;;;;;;-140.72;100.00;53302.03;6272842;22;20330;-69
2023/01/20 10:44:39;;;;;;;17.40;10.02;;;;;;;-140.72;100.00;53342.63;6271663;22;20471;-73
2023/01/20 10:47:29;;;;;;;21.92;12.52;;;;;;;-140.72;100.00;53320.31;6272296;22;20071;-69
2023/01/20 10:50:19;;;;;;;18.63;11.10;;;;;;;-140.72;100.00;53297.97;6272790;22;20002;-70
2023/01/20 10:52:57;;;;;;;;;;;;;;;-140.72;100.00;53265.50;6270682;22;20007;-69
2023/01/20 10:55:34;;;;;;;19.35;10.27;;;;;;;-140.72;100.00;53322.34;6271902;22;19942;-69
2023/01/20 10:58:05;;;;;;;17.15;11.18;;;;;;;-140.72;100.00;53295.94;6272122;22;20007;-70
2023/01/20 11:00:31;;;;;;;22.08;12.85;;;;;;;-140.72;100.00;53324.38;6269847;22;20008;-70
2023/01/20 11:03:00;;;;;;;23.27;13.30;;;;;;;-140.72;100.00;53302.03;6271752;22;20381;-72
2023/01/20 11:05:30;;;;;;;21.55;11.90;;;;;;;-140.72;100.00;53324.38;6270712;22;20003;-71
2023/01/20 11:07:59;;;;;;;20.52;10.90;;;;;;;-140.72;100.00;53356.84;6270075;22;20000;-70
2023/01/20 11:10:28;;;;;;;17.27;9.85;;;;;;;-140.72;100.00;53297.97;6271286;22;20004;-70
2023/01/20 11:12:58;;;;;;;18.70;10.73;;;;;;;-140.72;100.00;53328.41;6270631;22;19996;-70
2023/01/20 11:15:29;;;;;;;21.92;11.85;;;;;;;-140.72;100.00;53324.38;6271508;22;20030;-73
2023/01/20 11:18:12;;;;;;;23.85;12.93;;;;;;;-140.72;100.00;53344.66;6272884;22;20031;-70
2023/01/20 11:20:48;;;;;;;27.33;12.15;;;;;;;-140.72;100.00;53324.38;6270107;22;20513;-72